RJNH(METAR)
12/15 11:00
METAR RJNH 150200Z 31008KT 9999 FEW025 SCT160 BKN200 12/M01 Q1024
RMK 1CU025 4AC160 A3026=
戻る
トップページへ戻る
IMOC Co,.Ltd.